Tiempo atmosférico en la estación meteorológica de Castejon De Valdejasa, Zaragoza (442 m.)



Fecha
DESCASC
Temp. máxima en grados centígrados (hora)
DESCASC
Temp. mínima en grados centígrados (hora)
DESCASC
Temp. media en grados centígrados
DESCASC
Racha de viento máxima en m/sg (hora)
DESCASC
Velocidad máxima media en intervalos de 10 minutos(hora)
DESCASC
Precipitaciones diarias en mm
DESCASC
Precipitaciones de 00:00 a 06:00 en mm
DESCASC
Precipitaciones de 06:00 a 12:00 en mm
DESCASC
Precipitaciones de 12:00 a 18:00 en mm
DESCASC
Precipitaciones de 18:00 a 24:00 en mm
DESCASC
17-10-2019 21.2 (17:50) 11.7 (09:50) 16.5 5.83 (07:40) 3.89 (12:20) 0 0 0 0 0
16-10-2019 20.6 (16:10) 9.1 (08:30) 14.9 6.11 (12:40) 3.89 (12:40) 0 0 0 0 0
15-10-2019 16.6 (17:40) 7.7 (08:20) 12.2 11.94 (07:20) 7.5 (09:10) 0 0 0 0 0
14-10-2019 18.8 (14:10) 10.7 (23:59) 14.7 17.78 (05:30) 13.06 (05:20) 13.8 0 3.4 10.2 0.2
13-10-2019 25.4 (16:20) 16.2 (00:00) 20.8 16.67 (00:20) 12.22 (00:20) 0 0 0 0 0
12-10-2019 25.5 (16:20) 16.8 (00:00) 21.1 16.39 (18:00) 13.06 (18:10) 0 0 0 0 0
10-10-2019 21.9 (17:40) 8.7 (00:00) 15.3 7.78 (00:20) 5.56 (00:30) 0 0 0 0 0
09-10-2019 20.9 (16:20) 11.4 (00:00) 16.1 13.61 (14:00) 8.61 (14:10) 0 0 0 0 0
08-10-2019 27.6 (16:10) 12.1 (00:00) 19.9 7.22 (02:00) 4.72 (18:50) 0 0 0 0 0
07-10-2019 23.2 (17:00) 11.9 (00:00) 17.6 18.61 (11:10) 11.39 (11:00) 0 0 0 0 0
06-10-2019 21.1 (15:20) 10.6 (00:00) 15.9 13.61 (12:40) 8.89 (12:30) 0 0 0 0 0
05-10-2019 24.5 (18:10) 10.7 (08:20) 17.6 10.56 (11:20) 7.22 (11:20) 0 0 0 0 0
04-10-2019 24.5 (16:30) 12.5 (00:00) 18.5 10.28 (03:10) 6.94 (14:30) 0 0 0 0 0
03-10-2019 23.9 (17:40) 9.9 (00:00) 16.9 12.78 (15:40) 8.61 (17:10) 0 0 0 0 0
02-10-2019 19.6 (16:40) 13.2 (00:00) 16.4 15.56 (17:40) 9.17 (12:00) 0 0 0 0 0
01-10-2019 25.9 (17:10) 15.6 (00:00) 20.8 10.28 (17:00) 6.39 (01:50) 0 0 0 0 0
30-09-2019 29.6 (17:20) 13.1 (00:00) 21.4 6.39 (18:10) 4.17 (18:10) 0 0 0 0 0
29-09-2019 29 (16:40) 15.8 (00:00) 22.4 7.5 (05:00) 6.11 (05:00) 0 0 0 0 0
28-09-2019 27.2 (17:00) 12.5 (00:00) 19.9 6.39 (22:30) 5 (22:20) 0 0 0 0 0
27-09-2019 27.2 (17:40) 14.7 (00:00) 21 6.67 (15:00) 4.44 (13:20) 0 0 0 0 0
26-09-2019 27.7 (17:20) 12.7 (00:00) 20.2 6.39 (18:30) 4.44 (19:10) 0 0 0 0 0
25-09-2019 21.2 (17:20) 12.5 (00:00) 16.9 12.5 (15:50) 8.33 (15:40) 0 0 0 0 0
24-09-2019 25.9 (16:10) 14.2 (00:00) 20 8.89 (13:00) 6.67 (13:00) 0 0 0 0 0
23-09-2019 22.5 (17:30) 10.6 (00:00) 16.6 5.83 (13:10) 3.61 (13:10) 0 0 0 0 0
22-09-2019 22.1 (17:10) 13.9 (00:00) 18 9.44 (15:30) 6.11 (03:20) 0 0 0 0 0
21-09-2019 25.5 (16:00) 16.1 (00:00) 20.8 -- (--) -- (--) 1 0.8 0 0 0.2
20-09-2019 26.2 (15:40) 17 (00:00) 21.6 15.28 (12:00) 11.11 (11:20) 34 0 0 0 34

Gráficas

Temp. máximas Temp. mínimas Temp. medias Precipitaciones Rachas de viento máximas Velocidades máximas media en intervalos de 10 minutos

Datos horarios

Fecha y hora oficial Temperatura (ºC) Velocidad del viento (km/h) Dirección del viento Racha (km/h) Dirección de racha Precipitación (mm) Presión (hPa) Tendencia (hPa) Humedad (%)
2019-10-19 23:00:00 16.6 8 Nordeste 13 Nordeste 0 -- -- 65
2019-10-19 22:00:00 16.6 8 Nordeste 13 Este 0 -- -- 64
2019-10-19 21:00:00 16.8 9 Nordeste 13 Nordeste 0 -- -- 60
2019-10-19 20:00:00 17.2 5 Nordeste 12 Nordeste 0 -- -- 56
2019-10-19 19:00:00 16.5 6 Este 18 Este 0 -- -- 66
2019-10-19 18:00:00 18.4 11 Este 19 Este 0 -- -- 57
2019-10-19 17:00:00 19.1 5 Sudeste 22 Sudeste 0 -- -- 49
2019-10-19 16:00:00 18.9 8 Sudeste 22 Sudoeste 0 -- -- 49
2019-10-19 15:00:00 18.6 16 Sudoeste 30 Sudoeste 0 -- -- 51
2019-10-19 14:00:00 17.4 12 Sudoeste 39 Sudoeste 0 -- -- 55
2019-10-19 13:00:00 17.4 18 Sudoeste 37 Sudoeste 0 -- -- 57
2019-10-19 12:00:00 17.2 17 Sudoeste 29 Sudoeste 0 -- -- 57
2019-10-19 11:00:00 16.6 14 Sudoeste 29 Sudoeste 0 -- -- 60
2019-10-19 10:00:00 15.9 9 Sudoeste 28 Sudoeste 0 -- -- 60
2019-10-19 09:00:00 15.5 14 Sudoeste 36 Sudoeste 0 -- -- 59
2019-10-19 08:00:00 16 24 Sudoeste 45 Oeste 0 -- -- 63
2019-10-19 07:00:00 16.3 23 Sudoeste 40 Sudoeste 0 -- -- 66
2019-10-19 06:00:00 17.2 21 Sudoeste 34 Sudoeste 0 -- -- 64
2019-10-19 05:00:00 17.9 21 Sudoeste 32 Sudoeste 0 -- -- 63
2019-10-19 04:00:00 17.2 15 Sudoeste 26 Sudoeste 0 -- -- 67
2019-10-19 03:00:00 15.3 8 Este 16 Sudeste 0 -- -- 78
2019-10-19 02:00:00 16 9 Sur 20 Sudeste 0 -- -- 77
2019-10-19 01:00:00 16.1 9 Sudeste 23 Sudeste 0 -- -- 78
2019-10-19 00:00:00 16.4 13 Sudeste 24 Este 0 -- -- 78
2019-10-18 23:00:00 16.2 15 Este 24 Este 0 -- -- 80
2019-10-18 22:00:00 16 14 Este 24 Sudeste 0 -- -- 81
2019-10-18 21:00:00 16.1 13 Este 21 Este 0 -- -- 83
2019-10-18 20:00:00 16.2 13 Este 18 Este 0 -- -- 83
2019-10-18 19:00:00 17.1 14 Este 19 Este 0 -- -- 79
2019-10-18 18:00:00 18.2 8 Este 12 Este 0 -- -- 76
2019-10-18 17:00:00 18.5 6 Este 10 Este 0 -- -- 75
2019-10-18 16:00:00 18.2 6 Este 13 Este 0 -- -- 75
2019-10-18 15:00:00 18 8 Este 15 Este 0 -- -- 77
2019-10-18 14:00:00 17.1 11 Este 18 Este 0 -- -- 81
2019-10-18 13:00:00 16.2 9 Este 21 Este 0 -- -- 84
2019-10-18 12:00:00 14.7 13 Este 18 Este 1.6 -- -- 91
2019-10-18 11:00:00 14.4 10 Este 22 Este 0 -- -- 88
2019-10-18 10:00:00 13.6 10 Este 16 Este 0.2 -- -- 91
2019-10-18 09:00:00 13.1 10 Nordeste 20 Este 0 -- -- 92
2019-10-18 08:00:00 13.2 10 Nordeste 17 Este 1 -- -- 90
2019-10-18 07:00:00 13.1 8 Este 16 Este 1 -- -- 86
2019-10-18 06:00:00 13.3 13 Este 16 Este 0 -- -- 83
2019-10-18 05:00:00 13.9 11 Nordeste 19 Este 0 -- -- 80
2019-10-18 04:00:00 14.5 9 Este 22 Sudeste 0 -- -- 78
2019-10-18 03:00:00 14.7 6 Sur 17 Este 0 -- -- 76
2019-10-18 02:00:00 13.5 5 Nordeste 13 Oeste 0 -- -- 77
2019-10-18 01:00:00 14.2 4 Sudeste 9 Oeste 0 -- -- 76
2019-10-18 00:00:00 15.3 4 Sudoeste 17 Este 0 -- -- 71
2019-10-17 23:00:00 15.4 13 Este 20 Nordeste 0 -- -- 67
2019-10-17 22:00:00 15 13 Este 19 Este 0 -- -- 67
2019-10-17 21:00:00 14.6 13 Nordeste 16 Este 0 -- -- 67
2019-10-17 20:00:00 16.1 10 Nordeste 14 Nordeste 0 -- -- 62
2019-10-17 19:00:00 18.5 9 Este 18 Oeste 0 -- -- 57
2019-10-17 18:00:00 21.1 9 Sudoeste 14 Sudoeste 0 -- -- 52
2019-10-17 17:00:00 20.3 6 Sudeste 15 Sudeste 0 -- -- 52
2019-10-17 16:00:00 20.1 7 Sur 16 Este 0 -- -- 48
2019-10-17 15:00:00 20 6 Este 13 Sudeste 0 -- -- 49
2019-10-17 14:00:00 19.3 8 Este 14 Este 0 -- -- 53
2019-10-17 13:00:00 16.7 5 Este 17 Este 0 -- -- 55
2019-10-17 12:00:00 15.3 10 Este 15 Este 0 -- -- 62
2019-10-17 11:00:00 13.1 10 Este 17 Este 0 -- -- 67
2019-10-17 10:00:00 11.7 11 Este 18 Este 0 -- -- 72
2019-10-17 09:00:00 13.1 9 Este 16 Este 0 -- -- 59
2019-10-17 08:00:00 13.1 9 Este 21 Nordeste 0 -- -- 58
2019-10-17 07:00:00 12 10 Este 18 Este 0 -- -- 63
2019-10-17 06:00:00 12.4 12 Este 18 Nordeste 0 -- -- 60
2019-10-17 05:00:00 13.2 11 Nordeste 17 Nordeste 0 -- -- 57
2019-10-17 04:00:00 13.4 12 Nordeste 18 Nordeste 0 -- -- 57
2019-10-17 03:00:00 13.4 12 Nordeste 18 Nordeste 0 -- -- 56
2019-10-17 02:00:00 14.1 9 Nordeste 15 Este 0 -- -- 56
2019-10-17 01:00:00 13.6 12 Este 16 Este 0 -- -- 58
2019-10-17 00:00:00 14.2 11 Este 15 Este 0 -- -- 55
2019-10-16 23:00:00 14.3 10 Nordeste 18 Este 0 -- -- 57
2019-10-16 22:00:00 14.4 13 Nordeste 17 Este 0 -- -- 57
2019-10-16 21:00:00 14.7 12 Este 19 Este 0 -- -- 56
2019-10-16 20:00:00 15.6 9 Este 16 Este 0 -- -- 54
2019-10-16 19:00:00 18.9 5 Sudeste 14 Sudoeste 0 -- -- 43
2019-10-16 18:00:00 20.5 5 Oeste 15 Oeste 0 -- -- 39
2019-10-16 17:00:00 20.5 11 Oeste 22 Sudoeste 0 -- -- 39
2019-10-16 16:00:00 20 5 Sudoeste 19 Sur 0 -- -- 41
2019-10-16 15:00:00 19.8 9 Sur 17 Sudeste 0 -- -- 43
2019-10-16 14:00:00 19.1 6 Sudeste 19 Sudeste 0 -- -- 46
2019-10-16 13:00:00 17.7 9 Este 22 Este 0 -- -- 48
2019-10-16 12:00:00 16.4 7 Sudeste 15 Sudeste 0 -- -- 52
2019-10-16 11:00:00 16 11 Este 16 Este 0 -- -- 52
2019-10-16 10:00:00 13.2 7 Este 15 Nordeste 0 -- -- 59
2019-10-16 09:00:00 10.4 11 Nordeste 16 Este 0 -- -- 65
2019-10-16 08:00:00 9.3 11 Nordeste 17 Nordeste 0 -- -- 69
2019-10-16 07:00:00 10.7 10 Nordeste 16 Este 0 -- -- 63
2019-10-16 06:00:00 11.1 8 Nordeste 13 Este 0 -- -- 65
2019-10-16 05:00:00 11.7 7 Nordeste 12 Nordeste 0 -- -- 60
2019-10-16 04:00:00 11.1 11 Nordeste 13 Nordeste 0 -- -- 61
2019-10-16 03:00:00 10.9 8 Nordeste 12 Nordeste 0 -- -- 62
2019-10-16 02:00:00 10.8 7 Nordeste 11 Nordeste 0 -- -- 64
2019-10-16 01:00:00 10 10 Nordeste 13 Nordeste 0 -- -- 68
2019-10-16 00:00:00 9.8 6 Nordeste 12 Nordeste 0 -- -- 68
2019-10-15 23:00:00 10.2 3 Nordeste 13 Nordeste 0 -- -- 63
2019-10-15 22:00:00 10.4 8 Nordeste 14 Nordeste 0 -- -- 64
2019-10-15 21:00:00 10.9 6 Este 14 Nordeste 0 -- -- 66
2019-10-15 20:00:00 12.3 8 Este 9 Este 0 -- -- 59
2019-10-15 19:00:00 15.6 5 Noroeste 13 Oeste 0 -- -- 44
2019-10-15 18:00:00 16.5 8 Oeste 21 Oeste 0 -- -- 44
2019-10-15 17:00:00 16.4 12 Oeste 30 Oeste 0 -- -- 46
2019-10-15 16:00:00 15.8 14 Oeste 33 Oeste 0 -- -- 50
2019-10-15 15:00:00 15 19 Noroeste 35 Oeste 0 -- -- 51
2019-10-15 14:00:00 14 19 Oeste 37 Oeste 0 -- -- 56
2019-10-15 13:00:00 12.5 18 Oeste 33 Oeste 0 -- -- 64
2019-10-15 12:00:00 11.1 25 Oeste 36 Oeste 0 -- -- 68
2019-10-15 11:00:00 9.6 25 Oeste 40 Oeste 0 -- -- 74
2019-10-15 10:00:00 8.8 21 Noroeste 42 Noroeste 0 -- -- 73
2019-10-15 09:00:00 8.3 26 Noroeste 39 Noroeste 0 -- -- 74
2019-10-15 08:00:00 8.2 16 Noroeste 43 Noroeste 0 -- -- 76
2019-10-15 07:00:00 8.8 22 Noroeste 37 Noroeste 0 -- -- 74
2019-10-15 06:00:00 9 18 Noroeste 39 Noroeste 0 -- -- 77
2019-10-15 05:00:00 9.5 16 Noroeste 27 Noroeste 0 -- -- 81
2019-10-15 04:00:00 10.1 12 Noroeste 24 Noroeste 0 -- -- 81
2019-10-15 03:00:00 9.7 5 Oeste 10 Sudoeste 0 -- -- 82
2019-10-15 02:00:00 9.7 7 Oeste 21 Oeste 0 -- -- 84
2019-10-15 01:00:00 10.6 19 Oeste 35 Oeste 0 -- -- 77
2019-10-15 00:00:00 10.7 11 Oeste 26 Oeste 0 -- -- 82
2019-10-14 23:00:00 11.3 12 Oeste 37 Oeste 0.2 -- -- 74
2019-10-14 22:00:00 11.7 17 Oeste 40 Oeste 0 -- -- 77
2019-10-14 21:00:00 14.1 31 Oeste 48 Oeste 0 -- -- 75
2019-10-14 20:00:00 15.6 3 Este 15 Este 0 -- -- 82
2019-10-14 19:00:00 16.7 14 Este 21 Nordeste 0 -- -- 86
2019-10-14 18:00:00 16.8 13 Sudeste 39 Este 3.6 -- -- 84
2019-10-14 17:00:00 17.7 12 Este 35 Este 0 -- -- 90
2019-10-14 16:00:00 17.6 22 Sudeste 48 Este 3.6 -- -- 87
2019-10-14 15:00:00 18.1 24 Este 49 Este 0 -- -- 88
2019-10-14 14:00:00 18.4 23 Este 34 Este 0.2 -- -- 89
2019-10-14 13:00:00 16.2 21 Sudeste 42 Sudeste 2.8 -- -- 91
2019-10-14 12:00:00 16.6 27 Sudeste 49 Sudeste 2.6 -- -- 87
2019-10-14 11:00:00 16.8 34 Este 52 Sudeste 0.8 -- -- 88
2019-10-14 10:00:00 16.6 37 Este 55 Sudeste 0 -- -- 87
2019-10-14 09:00:00 -- 40 Este 59 Este 0 -- -- --
2019-10-14 08:00:00 16.1 41 Este 58 Sudeste 0 -- -- 87
2019-10-14 07:00:00 16.2 44 Este 59 Este 0 -- -- 87
2019-10-14 06:00:00 15.9 41 Este 64 Este 0 -- -- 89
2019-10-14 05:00:00 16.2 44 Este 60 Este 0 -- -- 88
2019-10-14 04:00:00 16.4 37 Este 59 Este 0 -- -- 88
2019-10-14 03:00:00 16.4 33 Este 49 Este 0 -- -- 88
2019-10-14 02:00:00 16.6 32 Este 53 Este 0 -- -- 87
2019-10-14 01:00:00 17.2 40 Este 54 Este 0 -- -- 87
2019-10-14 00:00:00 17.6 32 Este 55 Este 0 -- -- 84
2019-10-13 23:00:00 18.7 36 Este 51 Este 0 -- -- 79
2019-10-13 22:00:00 20.4 29 Este 44 Este 0 -- -- 69
2019-10-13 21:00:00 20.9 22 Este 32 Este 0 -- -- 65
2019-10-13 20:00:00 21.8 23 Este 41 Este 0 -- -- 62
2019-10-13 19:00:00 23.2 28 Este 44 Este 0 -- -- 57
2019-10-13 18:00:00 24.5 25 Este 46 Este 0 -- -- 55
2019-10-13 17:00:00 24.5 31 Este 46 Este 0 -- -- 56
2019-10-13 16:00:00 25.1 29 Este 46 Este 0 -- -- 53
2019-10-13 15:00:00 24.1 27 Este 46 Este 0 -- -- 58
2019-10-13 14:00:00 24 28 Este 44 Este 0 -- -- 58
2019-10-13 13:00:00 23 28 Este 41 Este 0 -- -- 62
2019-10-13 12:00:00 21.8 28 Este 48 Este 0 -- -- 68
2019-10-13 11:00:00 20 27 Este 41 Este 0 -- -- 76
2019-10-13 10:00:00 17.8 25 Este 50 Este 0 -- -- 85
2019-10-13 09:00:00 16.4 35 Este 55 Este 0 -- -- 89
2019-10-13 08:00:00 16.4 36 Este 53 Este 0 -- -- 88
2019-10-13 07:00:00 16.4 34 Este 51 Este 0 -- -- 88
2019-10-13 06:00:00 16.2 30 Este 48 Este 0 -- -- 88
2019-10-13 05:00:00 16.3 28 Este 48 Este 0 -- -- 87
2019-10-13 04:00:00 16.5 33 Este 44 Este 0 -- -- 87
2019-10-13 03:00:00 16.8 30 Este 46 Este 0 -- -- 86
2019-10-13 02:00:00 17.3 29 Este 49 Este 0 -- -- 83
2019-10-13 01:00:00 17.8 28 Este 60 Este 0 -- -- 81
2019-10-13 00:00:00 18.1 41 Este 59 Este 0 -- -- 80
2019-10-12 23:00:00 18.6 36 Este 53 Este 0 -- -- 78
2019-10-12 22:00:00 19.8 32 Este 51 Este 0 -- -- 74
2019-10-12 21:00:00 20.8 36 Este 47 Este 0 -- -- 70
2019-10-12 20:00:00 21.7 31 Este 49 Este 0 -- -- 66
2019-10-12 19:00:00 22.8 41 Este 59 Este 0 -- -- 59
2019-10-12 18:00:00 24.4 44 Este 59 Este 0 -- -- 55
2019-10-12 17:00:00 25.2 40 Este 53 Este 0 -- -- 52
2019-10-12 16:00:00 25.2 31 Este 51 Este 0 -- -- 51
2019-10-12 15:00:00 24.9 35 Este 53 Este 0 -- -- 52
2019-10-12 14:00:00 23.7 34 Este 49 Este 0 -- -- 59
2019-10-12 13:00:00 22.5 34 Este 51 Este 0 -- -- 63
2019-10-12 12:00:00 21.2 35 Este 48 Este 0 -- -- 69
2019-10-12 11:00:00 20.1 36 Este 50 Este 0 -- -- 75
2019-10-12 10:00:00 17.6 37 Este 50 Este 0 -- -- 85
2019-10-12 09:00:00 17 30 Este 41 Este 0 -- -- 88
2019-10-12 08:00:00 16.8 31 Este 41 Este 0 -- -- 89
2019-10-12 07:00:00 17 32 Este 46 Este 0 -- -- 89
2019-10-12 06:00:00 16.9 33 Este 48 Este 0 -- -- 89
2019-10-12 05:00:00 16.9 30 Este 45 Este 0 -- -- 89
2019-10-12 04:00:00 17.1 36 Este 52 Este 0 -- -- 88
2019-10-12 03:00:00 17.4 32 Este 48 Este 0 -- -- 89
2019-10-12 02:00:00 17.4 29 Este 47 Este 0 -- -- 89
2019-10-12 01:00:00 17.7 30 Este 43 Este 0 -- -- 88
2019-10-12 00:00:00 18.8 31 Este 41 Este 0 -- -- 81
2019-10-11 23:00:00 19.9 27 Este 38 Este 0 -- -- 74
2019-10-11 22:00:00 20.2 24 Este 35 Este 0 -- -- 72
2019-10-11 21:00:00 20.9 27 Este 40 Este 0 -- -- 66
2019-10-11 20:00:00 21.6 32 Este 42 Este 0 -- -- 62
2019-10-11 19:00:00 22.9 30 Este 39 Este 0 -- -- 57
2019-10-11 18:00:00 24.7 23 Este 36 Este 0 -- -- 52
2019-10-11 17:00:00 25.2 22 Este 35 Este 0 -- -- 51
2019-10-11 16:00:00 25.1 20 Este 34 Este 0 -- -- 51
2019-10-11 15:00:00 24.8 17 Este 32 Este 0 -- -- 52
2019-10-11 14:00:00 23.7 19 Este 33 Este 0 -- -- 54
2019-10-11 13:00:00 21.3 24 Este 33 Este 0 -- -- 61
2019-10-11 12:00:00 19.9 22 Este 35 Sudeste 0 -- -- 65
2019-10-11 11:00:00 18 24 Este 36 Este 0 -- -- 73
2019-10-11 10:00:00 16.1 24 Este 36 Este 0 -- -- 78
2019-10-11 09:00:00 14.4 22 Este 31 Este 0 -- -- 87
2019-10-11 08:00:00 14 23 Este 29 Este 0 -- -- 90
2019-10-11 07:00:00 13.6 20 Este 27 Este 0 -- -- 91
2019-10-11 06:00:00 13.4 17 Este 25 Este 0 -- -- 88
2019-10-11 05:00:00 13.8 19 Este 29 Nordeste 0 -- -- 82
2019-10-11 04:00:00 13.9 14 Este 23 Nordeste 0 -- -- 76
2019-10-11 03:00:00 14.3 19 Este 29 Este 0 -- -- 71
2019-10-11 02:00:00 14 19 Este 25 Este 0 -- -- 67
2019-10-11 01:00:00 14.2 14 Este 19 Este 0 -- -- 63
2019-10-11 00:00:00 14.9 13 Este 17 Nordeste 0 -- -- 58
2019-10-10 23:00:00 13.9 12 Este 15 Nordeste 0 -- -- 60
2019-10-10 22:00:00 13 12 Nordeste 15 Este 0 -- -- 63
2019-10-10 21:00:00 15.3 8 Nordeste 10 Nordeste 0 -- -- 55
2019-10-10 20:00:00 17.7 7 Nordeste 9 Nordeste 0 -- -- 48
2019-10-10 19:00:00 21.1 3 Sur 10 Oeste 0 -- -- 38
2019-10-10 18:00:00 21.9 6 Oeste 12 Oeste 0 -- -- 37
2019-10-10 17:00:00 21.2 10 Oeste 21 Sudoeste 0 -- -- 37
2019-10-10 16:00:00 20.4 14 Sudoeste 23 Sudoeste 0 -- -- 41
2019-10-10 15:00:00 19.3 14 Oeste 23 Sudoeste 0 -- -- 47
2019-10-10 14:00:00 17.8 13 Oeste 24 Sudoeste 0 -- -- 52
2019-10-10 13:00:00 16.4 14 Oeste 24 Oeste 0 -- -- 57
2019-10-10 12:00:00 14.6 19 Oeste 27 Oeste 0 -- -- 60
2019-10-10 11:00:00 12.6 18 Oeste 28 Oeste 0 -- -- 72
2019-10-10 10:00:00 -- 16 Oeste 24 Oeste 0 -- -- --
2019-10-10 09:00:00 9.2 10 Oeste 19 Oeste 0 -- -- 85
2019-10-10 08:00:00 9.6 13 Oeste 21 Noroeste 0 -- -- 81
2019-10-10 07:00:00 9.8 15 Oeste 24 Oeste 0 -- -- 83
2019-10-10 06:00:00 9.4 13 Oeste 27 Oeste 0 -- -- 82
2019-10-10 05:00:00 10.4 14 Oeste 26 Oeste 0 -- -- 80
2019-10-10 04:00:00 9.9 9 Oeste 18 Noroeste 0 -- -- 83
2019-10-10 03:00:00 10.4 10 Oeste 24 Oeste 0 -- -- 81
2019-10-10 02:00:00 10.2 12 Oeste 27 Oeste 0 -- -- 80
2019-10-10 01:00:00 11.1 16 Oeste 28 Oeste 0 -- -- 76
2019-10-10 00:00:00 11.4 13 Oeste 23 Oeste 0 -- -- 72
2019-10-09 23:00:00 13.1 16 Oeste 31 Oeste 0 -- -- 66
2019-10-09 22:00:00 13.8 15 Noroeste 37 Noroeste 0 -- -- 64
2019-10-09 21:00:00 14.4 19 Noroeste 35 Noroeste 0 -- -- 61
2019-10-09 20:00:00 15.6 20 Noroeste 44 Noroeste 0 -- -- 59
2019-10-09 19:00:00 18.6 16 Noroeste 41 Oeste 0 -- -- 51
2019-10-09 18:00:00 20 22 Noroeste 45 Oeste 0 -- -- 48
2019-10-09 17:00:00 20.9 21 Noroeste 47 Oeste 0 -- -- 46
2019-10-09 16:00:00 20.8 27 Oeste 46 Noroeste 0 -- -- 48
2019-10-09 15:00:00 20.7 28 Oeste 46 Noroeste 0 -- -- 52
2019-10-09 14:00:00 20 27 Oeste 49 Oeste 0 -- -- 57
2019-10-09 13:00:00 19.5 26 Oeste 39 Oeste 0 -- -- 60
2019-10-09 12:00:00 18.3 18 Oeste 29 Oeste 0 -- -- 68
2019-10-09 11:00:00 15.3 18 Oeste 28 Oeste 0 -- -- 79
2019-10-09 10:00:00 13.5 10 Oeste 16 Oeste 0 -- -- 89
2019-10-09 09:00:00 12.3 0 Calma 10 Oeste 0 -- -- 92
2019-10-09 08:00:00 12.2 5 Sudeste 8 Este 0 -- -- 88
2019-10-09 07:00:00 13.5 3 Noroeste 10 Este 0 -- -- 86
2019-10-09 06:00:00 13.2 8 Este 13 Este 0 -- -- 86
2019-10-09 05:00:00 13.5 8 Nordeste 10 Nordeste 0 -- -- 82
2019-10-09 04:00:00 13.6 7 Este 11 Este 0 -- -- 75
2019-10-09 03:00:00 14.8 5 Nordeste 9 Nordeste 0 -- -- 71
2019-10-09 02:00:00 14.9 3 Este 7 Este 0 -- -- 69
2019-10-09 01:00:00 17.1 6 Nordeste 14 Este 0 -- -- 61
2019-10-09 00:00:00 17.5 6 Este 13 Nordeste 0 -- -- 60
2019-10-08 23:00:00 18 12 Nordeste 14 Nordeste 0 -- -- 59
2019-10-08 22:00:00 19.1 8 Nordeste 15 Nordeste 0 -- -- 56
2019-10-08 21:00:00 20.2 10 Nordeste 15 Nordeste 0 -- -- 52
2019-10-08 20:00:00 22.6 6 Nordeste 21 Este 0 -- -- 46
2019-10-08 19:00:00 24.8 16 Este 23 Este 0 -- -- 42
2019-10-08 18:00:00 26.5 14 Este 22 Sudeste 0 -- -- 39
2019-10-08 17:00:00 27.3 12 Este 19 Este 0 -- -- 37
2019-10-08 16:00:00 27.3 9 Este 20 Este 0 -- -- 37
2019-10-08 15:00:00 26.3 3 Oeste 17 Oeste 0 -- -- 36
2019-10-08 14:00:00 25.2 9 Oeste 19 Este 0 -- -- 37
2019-10-08 13:00:00 24.9 11 Este 21 Este 0 -- -- 40
2019-10-08 12:00:00 23.1 7 Este 19 Este 0 -- -- 42
2019-10-08 11:00:00 20.8 10 Este 15 Sudeste 0 -- -- 46
2019-10-08 10:00:00 18 2 Sudeste 10 Nordeste 0 -- -- 50
2019-10-08 09:00:00 14.2 7 Nordeste 11 Este 0 -- -- 49
2019-10-08 08:00:00 13.4 9 Nordeste 13 Este 0 -- -- 33
2019-10-08 07:00:00 14 3 Noroeste 12 Nordeste 0 -- -- 31
2019-10-08 06:00:00 13.2 10 Nordeste 13 Este 0 -- -- 35
2019-10-08 05:00:00 14.6 0 Calma 14 Oeste 0 -- -- 33
2019-10-08 04:00:00 14.8 6 Noroeste 20 Noroeste 0 -- -- 33
2019-10-08 03:00:00 16.7 5 Sudeste 24 Oeste 0 -- -- 26
2019-10-08 02:00:00 16.7 14 Noroeste 26 Noroeste 0 -- -- 27
2019-10-08 01:00:00 17.4 17 Noroeste 26 Noroeste 0 -- -- 26
2019-10-08 00:00:00 15.8 22 Oeste 27 Oeste 0 -- -- 34
2019-10-07 23:00:00 17.7 15 Oeste 40 Noroeste 0 -- -- 34
2019-10-07 22:00:00 17.5 20 Oeste 35 Oeste 0 -- -- 38
2019-10-07 21:00:00 18.4 21 Noroeste 46 Noroeste 0 -- -- 42
2019-10-07 20:00:00 19.8 25 Noroeste 46 Noroeste 0 -- -- 45
2019-10-07 19:00:00 21.5 26 Oeste 49 Noroeste 0 -- -- 39
2019-10-07 18:00:00 22.7 28 Noroeste 51 Oeste 0 -- -- 39
2019-10-07 17:00:00 23.2 29 Oeste 56 Oeste 0 -- -- 38
2019-10-07 16:00:00 22.5 38 Oeste 53 Oeste 0 -- -- 39
2019-10-07 15:00:00 21.3 33 Oeste 51 Oeste 0 -- -- 43
2019-10-07 14:00:00 19.5 27 Oeste 51 Oeste 0 -- -- 49
2019-10-07 13:00:00 17.7 24 Oeste 54 Oeste 0 -- -- 58
2019-10-07 12:00:00 15.7 35 Oeste 67 Oeste 0 -- -- 64
2019-10-07 11:00:00 14.6 41 Oeste 59 Oeste 0 -- -- 67
2019-10-07 10:00:00 13.4 32 Oeste 49 Oeste 0 -- -- 71
2019-10-07 09:00:00 12.2 31 Oeste 52 Noroeste 0 -- -- 74
2019-10-07 08:00:00 11.9 36 Oeste 64 Oeste 0 -- -- 74
2019-10-07 07:00:00 12.1 37 Noroeste 63 Noroeste 0 -- -- 73
2019-10-07 06:00:00 12.1 28 Noroeste 48 Oeste 0 -- -- 73
2019-10-07 05:00:00 12.3 27 Oeste 47 Oeste 0 -- -- 72
2019-10-07 04:00:00 12.3 24 Oeste 42 Oeste 0 -- -- 71
2019-10-07 03:00:00 12.7 21 Oeste 41 Oeste 0 -- -- 70
2019-10-07 02:00:00 12.7 24 Oeste 37 Oeste 0 -- -- 78
2019-10-07 01:00:00 13.7 25 Oeste 47 Oeste 0 -- -- 74
2019-10-07 00:00:00 13.9 19 Oeste 42 Noroeste 0 -- -- 72
2019-10-06 23:00:00 14.7 22 Noroeste 39 Noroeste 0 -- -- 71
2019-10-06 22:00:00 15 15 Oeste 30 Noroeste 0 -- -- 68
2019-10-06 21:00:00 15.8 17 Noroeste 31 Noroeste 0 -- -- 66
2019-10-06 20:00:00 17.3 20 Noroeste 35 Noroeste 0 -- -- 64
2019-10-06 19:00:00 18.5 26 Noroeste 47 Oeste 0 -- -- 58
2019-10-06 18:00:00 20.7 26 Noroeste 44 Noroeste 0 -- -- 52
2019-10-06 17:00:00 20.7 22 Noroeste 45 Oeste 0 -- -- 55
2019-10-06 16:00:00 21.1 24 Noroeste 42 Noroeste 0 -- -- 55
2019-10-06 15:00:00 20 28 Oeste 47 Noroeste 0 -- -- 58
2019-10-06 14:00:00 18.1 29 Oeste 43 Oeste 0 -- -- 62
2019-10-06 13:00:00 17.8 26 Oeste 49 Oeste 0 -- -- 61
2019-10-06 12:00:00 16.7 27 Oeste 41 Oeste 0 -- -- 64
2019-10-06 11:00:00 15.6 28 Oeste 46 Oeste 0 -- -- 66
2019-10-06 10:00:00 13.5 21 Oeste 34 Oeste 0 -- -- 74
2019-10-06 09:00:00 11.1 10 Oeste 19 Oeste 0 -- -- 89
2019-10-06 08:00:00 10.7 10 Oeste 22 Noroeste 0 -- -- 88
2019-10-06 07:00:00 10.7 7 Oeste 14 Oeste 0 -- -- 90
2019-10-06 06:00:00 11 9 Oeste 15 Oeste 0 -- -- 89
2019-10-06 05:00:00 12.4 15 Oeste 26 Oeste 0 -- -- 85
2019-10-06 04:00:00 12.3 5 Oeste 10 Oeste 0 -- -- 84
2019-10-06 03:00:00 12.6 7 Oeste 13 Oeste 0 -- -- 83
2019-10-06 02:00:00 13.5 7 Oeste 20 Oeste 0 -- -- 79
2019-10-06 01:00:00 14.1 6 Oeste 12 Oeste 0 -- -- 74
2019-10-06 00:00:00 -- 8 Oeste 15 Oeste 0 -- -- --
2019-10-05 23:00:00 16.8 0 Calma 8 Oeste 0 -- -- 61
2019-10-05 22:00:00 18.8 7 Oeste 26 Noroeste 0 -- -- 55
2019-10-05 21:00:00 20.7 15 Noroeste 26 Noroeste 0 -- -- 50
2019-10-05 20:00:00 21.5 15 Oeste 22 Noroeste 0 -- -- 49
2019-10-05 19:00:00 23.6 18 Oeste 27 Noroeste 0 -- -- 45
2019-10-05 18:00:00 24.4 16 Oeste 31 Oeste 0 -- -- 42
2019-10-05 17:00:00 24.4 19 Oeste 32 Oeste 0 -- -- 42
2019-10-05 16:00:00 23.2 25 Oeste 34 Oeste 0 -- -- 43
2019-10-05 15:00:00 22.1 19 Oeste 35 Oeste 0 -- -- 46
2019-10-05 14:00:00 20.8 21 Oeste 34 Oeste 0 -- -- 51
2019-10-05 13:00:00 19.2 22 Oeste 37 Oeste 0 -- -- 57
2019-10-05 12:00:00 17.8 22 Oeste 38 Oeste 0 -- -- 60
2019-10-05 11:00:00 16 25 Oeste 36 Oeste 0 -- -- 69
2019-10-05 10:00:00 14.2 20 Oeste 34 Oeste 0 -- -- 78
2019-10-05 09:00:00 12.8 18 Oeste 30 Oeste 0 -- -- 82
2019-10-05 08:00:00 10.8 14 Oeste 26 Oeste 0 -- -- 91
2019-10-05 07:00:00 11.4 12 Oeste 23 Oeste 0 -- -- 90
2019-10-05 06:00:00 11.7 13 Oeste 23 Oeste 0 -- -- 89
2019-10-05 05:00:00 13.7 13 Oeste 30 Oeste 0 -- -- 81
2019-10-05 04:00:00 13.1 12 Oeste 17 Oeste 0 -- -- 84
2019-10-05 03:00:00 12.9 13 Oeste 28 Noroeste 0 -- -- 83
2019-10-05 02:00:00 13.6 15 Oeste 26 Noroeste 0 -- -- 80
2019-10-05 01:00:00 15.3 13 Oeste 25 Noroeste 0 -- -- 72
2019-10-05 00:00:00 15.7 11 Noroeste 21 Noroeste 0 -- -- 71
2019-10-04 23:00:00 16.6 8 Oeste 17 Oeste 0 -- -- 68
2019-10-04 22:00:00 18.6 9 Noroeste 22 Noroeste 0 -- -- 61
2019-10-04 21:00:00 19.4 12 Noroeste 26 Norte 0 -- -- 61
2019-10-04 20:00:00 21.1 11 Noroeste 22 Noroeste 0 -- -- 57
2019-10-04 19:00:00 23.3 14 Noroeste 29 Oeste 0 -- -- 51
2019-10-04 18:00:00 24.1 19 Oeste 30 Oeste 0 -- -- 48
2019-10-04 17:00:00 24.4 21 Oeste 35 Oeste 0 -- -- 48
2019-10-04 16:00:00 23.9 23 Oeste 36 Oeste 0 -- -- 51
2019-10-04 15:00:00 23.7 21 Oeste 37 Noroeste 0 -- -- 55
2019-10-04 14:00:00 22.4 24 Oeste 36 Oeste 0 -- -- 57
2019-10-04 13:00:00 21.1 23 Oeste 36 Oeste 0 -- -- 63
2019-10-04 12:00:00 19.6 24 Oeste 32 Oeste 0 -- -- 68
2019-10-04 11:00:00 18.1 18 Oeste 24 Oeste 0 -- -- 72
2019-10-04 10:00:00 15.9 11 Oeste 14 Sudoeste 0 -- -- 75
2019-10-04 09:00:00 13 7 Oeste 19 Oeste 0 -- -- 81
2019-10-04 08:00:00 12.7 10 Oeste 22 Oeste 0 -- -- 79
2019-10-04 07:00:00 13.2 0 Calma 14 Oeste 0 -- -- 75
2019-10-04 06:00:00 12.8 10 Oeste 16 Oeste 0 -- -- 72
2019-10-04 05:00:00 12.6 8 Oeste 16 Sudoeste 0 -- -- 70
2019-10-04 04:00:00 14.9 13 Oeste 37 Oeste 0 -- -- 64
2019-10-04 03:00:00 14.6 19 Oeste 34 Oeste 0 -- -- 58
2019-10-04 02:00:00 14.5 19 Oeste 27 Oeste 0 -- -- 52
2019-10-04 01:00:00 14 19 Oeste 36 Oeste 0 -- -- 57
2019-10-04 00:00:00 16.3 17 Noroeste 34 Noroeste 0 -- -- 44
2019-10-03 23:00:00 16.7 19 Oeste 38 Noroeste 0 -- -- 47
2019-10-03 22:00:00 17.4 19 Noroeste 39 Noroeste 0 -- -- 46
2019-10-03 21:00:00 18.3 25 Noroeste 37 Noroeste 0 -- -- 47
2019-10-03 20:00:00 19.7 13 Noroeste 31 Noroeste 0 -- -- 42
2019-10-03 19:00:00 21.9 17 Noroeste 39 Oeste 0 -- -- 37
2019-10-03 18:00:00 23.5 23 Noroeste 46 Oeste 0 -- -- 30
2019-10-03 17:00:00 23.8 27 Oeste 44 Oeste 0 -- -- 29
2019-10-03 16:00:00 22.6 27 Oeste 46 Oeste 0 -- -- 33
2019-10-03 15:00:00 21.7 26 Oeste 46 Oeste 0 -- -- 34
2019-10-03 14:00:00 20 27 Oeste 42 Oeste 0 -- -- 46
2019-10-03 13:00:00 18 23 Oeste 42 Oeste 0 -- -- 55
2019-10-03 12:00:00 15.8 23 Oeste 34 Oeste 0 -- -- 65
2019-10-03 11:00:00 13.6 18 Oeste 30 Oeste 0 -- -- 75
2019-10-03 10:00:00 11.9 18 Oeste 32 Oeste 0 -- -- 81
2019-10-03 09:00:00 10.3 16 Oeste 26 Oeste 0 -- -- 86
2019-10-03 08:00:00 9.9 12 Oeste 25 Oeste 0 -- -- 87
2019-10-03 07:00:00 10.2 12 Oeste 31 Oeste 0 -- -- 88
2019-10-03 06:00:00 11.3 21 Oeste 32 Oeste 0 -- -- 83
2019-10-03 05:00:00 11.2 18 Oeste 29 Oeste 0 -- -- 84
2019-10-03 04:00:00 11.6 17 Oeste 32 Oeste 0 -- -- 83
2019-10-03 03:00:00 11.6 19 Oeste 34 Oeste 0 -- -- 84
2019-10-03 02:00:00 12.9 17 Oeste 36 Oeste 0 -- -- 76
2019-10-03 01:00:00 12.9 19 Oeste 44 Noroeste 0 -- -- 75
2019-10-03 00:00:00 13.4 21 Oeste 42 Oeste 0 -- -- 76
2019-10-02 23:00:00 13.3 20 Oeste 43 Oeste 0 -- -- 77
2019-10-02 22:00:00 14.1 18 Oeste 44 Noroeste 0 -- -- 74
2019-10-02 21:00:00 14.5 17 Oeste 51 Noroeste 0 -- -- 76
2019-10-02 20:00:00 15.5 31 Noroeste 53 Oeste 0 -- -- 71
2019-10-02 19:00:00 16.6 27 Noroeste 48 Oeste 0 -- -- 65
2019-10-02 18:00:00 18.2 32 Noroeste 56 Oeste 0 -- -- 60
2019-10-02 17:00:00 19.1 31 Noroeste 50 Oeste 0 -- -- 54
2019-10-02 16:00:00 18.5 32 Oeste 53 Oeste 0 -- -- 59
2019-10-02 15:00:00 19.2 23 Noroeste 51 Oeste 0 -- -- 54
2019-10-02 14:00:00 18.1 26 Noroeste 48 Noroeste 0 -- -- 61
2019-10-02 13:00:00 17.7 23 Noroeste 53 Oeste 0 -- -- 61
2019-10-02 12:00:00 16.9 33 Oeste 54 Oeste 0 -- -- 64
2019-10-02 11:00:00 16 26 Oeste 49 Oeste 0 -- -- 65
2019-10-02 10:00:00 15 21 Noroeste 32 Noroeste 0 -- -- 68
2019-10-02 09:00:00 14 19 Noroeste 35 Noroeste 0 -- -- 71
2019-10-02 08:00:00 13.9 19 Noroeste 40 Noroeste 0 -- -- 70
2019-10-02 07:00:00 13.8 15 Noroeste 32 Noroeste 0 -- -- 71
2019-10-02 06:00:00 14 14 Noroeste 27 Noroeste 0 -- -- 74
2019-10-02 05:00:00 14.4 17 Noroeste 33 Noroeste 0 -- -- 73
2019-10-02 04:00:00 14.9 12 Noroeste 31 Noroeste 0 -- -- 73
2019-10-02 03:00:00 15.6 19 Noroeste 36 Noroeste 0 -- -- 75
2019-10-02 02:00:00 15.6 21 Noroeste 35 Noroeste 0 -- -- 74
2019-10-02 01:00:00 15.5 15 Noroeste 26 Noroeste 0 -- -- 74
2019-10-02 00:00:00 15.8 12 Noroeste 23 Oeste 0 -- -- 72
2019-10-01 23:00:00 16.1 16 Oeste 23 Oeste 0 -- -- 72
2019-10-01 22:00:00 18.4 12 Oeste 21 Oeste 0 -- -- 63
2019-10-01 21:00:00 20.3 10 Noroeste 21 Noroeste 0 -- -- 56
2019-10-01 20:00:00 21.8 13 Noroeste 22 Noroeste 0 -- -- 51
2019-10-01 19:00:00 23.7 12 Noroeste 31 Noroeste 0 -- -- 48
2019-10-01 18:00:00 25.5 13 Noroeste 32 Noroeste 0 -- -- 45
2019-10-01 17:00:00 25.7 22 Oeste 37 Oeste 0 -- -- 47
2019-10-01 16:00:00 24.7 17 Noroeste 29 Oeste 0 -- -- 48
2019-10-01 15:00:00 25.3 15 Oeste 29 Oeste 0 -- -- 50
2019-10-01 14:00:00 23.6 17 Oeste 27 Oeste 0 -- -- 58
2019-10-01 13:00:00 22.4 18 Oeste 23 Oeste 0 -- -- 65
2019-10-01 12:00:00 21.2 9 Oeste 18 Oeste 0 -- -- 70
2019-10-01 11:00:00 19.6 12 Oeste 16 Oeste 0 -- -- 76
2019-10-01 10:00:00 20.7 6 Este 15 Este 0 -- -- 77
2019-10-01 09:00:00 17.3 10 Nordeste 13 Nordeste 0 -- -- 88
2019-10-01 08:00:00 16.8 6 Este 15 Este 0 -- -- 86
2019-10-01 07:00:00 16.9 12 Nordeste 20 Nordeste 0 -- -- 87
2019-10-01 06:00:00 16.6 12 Nordeste 19 Este 0 -- -- 85
2019-10-01 05:00:00 17.2 11 Este 21 Este 0 -- -- 80
2019-10-01 04:00:00 17.6 14 Nordeste 20 Nordeste 0 -- -- 78
2019-10-01 03:00:00 18.7 5 Este 21 Este 0 -- -- 71
2019-10-01 02:00:00 18.9 19 Este 28 Este 0 -- -- 65
2019-10-01 01:00:00 21.2 12 Nordeste 17 Nordeste 0 -- -- 59
2019-10-01 00:00:00 21.7 11 Nordeste 17 Este 0 -- -- 57
2019-09-30 23:00:00 20.4 8 Nordeste 13 Este 0 -- -- 53
2019-09-30 22:00:00 21.9 3 Nordeste 13 Nordeste 0 -- -- 50
2019-09-30 21:00:00 22.7 9 Este 13 Nordeste 0 -- -- 48
2019-09-30 20:00:00 24.8 8 Este 15 Este 0 -- -- 44
2019-09-30 19:00:00 27.8 5 Este 23 Este 0 -- -- 37
2019-09-30 18:00:00 29 13 Este 19 Este 0 -- -- 37
2019-09-30 17:00:00 29.3 4 Oeste 12 Oeste 0 -- -- 32
2019-09-30 16:00:00 28.1 7 Oeste 15 Oeste 0 -- -- 35
2019-09-30 15:00:00 26.7 7 Oeste 16 Sudoeste 0 -- -- 40
2019-09-30 14:00:00 24.8 8 Oeste 15 Oeste 0 -- -- 46
2019-09-30 13:00:00 22.7 8 Sudoeste 19 Oeste 0 -- -- 50
2019-09-30 12:00:00 20.8 12 Sudoeste 17 Sudoeste 0 -- -- 60
2019-09-30 11:00:00 18.6 7 Oeste 11 Oeste 0 -- -- 70
2019-09-30 10:00:00 17 4 Sudoeste 6 Este 0 -- -- 73
2019-09-30 09:00:00 14.3 4 Este 6 Este 0 -- -- 81
2019-09-30 08:00:00 13.6 3 Este 8 Nordeste 0 -- -- 80
2019-09-30 07:00:00 13.9 4 Este 8 Este 0 -- -- 74
2019-09-30 06:00:00 13.9 6 Este 12 Nordeste 0 -- -- 75
2019-09-30 05:00:00 13.9 2 Norte 9 Este 0 -- -- 75
2019-09-30 04:00:00 14.7 6 Este 9 Este 0 -- -- 71
2019-09-30 03:00:00 15.4 3 Nordeste 6 Nordeste 0 -- -- 69
2019-09-30 02:00:00 17.2 3 Noroeste 12 Nordeste 0 -- -- 63
2019-09-30 01:00:00 18.8 9 Nordeste 12 Este 0 -- -- 56
2019-09-30 00:00:00 17.5 9 Este 13 Este 0 -- -- 58
2019-09-29 23:00:00 19.5 10 Nordeste 13 Nordeste 0 -- -- 50
2019-09-29 22:00:00 20.2 9 Este 16 Nordeste 0 -- -- 48
2019-09-29 21:00:00 21.5 9 Nordeste 13 Nordeste 0 -- -- 44
2019-09-29 20:00:00 25.2 0 Calma 10 Oeste 0 -- -- 37
2019-09-29 19:00:00 27.7 8 Oeste 17 Oeste 0 -- -- 35
2019-09-29 18:00:00 28.6 8 Sudoeste 16 Oeste 0 -- -- 34
2019-09-29 17:00:00 28.6 13 Oeste 21 Noroeste 0 -- -- 33
2019-09-29 16:00:00 28.2 10 Sudoeste 22 Oeste 0 -- -- 32
2019-09-29 15:00:00 27.2 13 Oeste 21 Sudoeste 0 -- -- 35
2019-09-29 14:00:00 26 12 Sudoeste 19 Oeste 0 -- -- 40
2019-09-29 13:00:00 25 4 Este 12 Este 0 -- -- 52
2019-09-29 12:00:00 23 8 Este 17 Este 0 -- -- 63
2019-09-29 11:00:00 20.8 10 Este 18 Este 0 -- -- 81
2019-09-29 10:00:00 17.6 13 Este 18 Este 0 -- -- 94
2019-09-29 09:00:00 16.4 12 Nordeste 17 Nordeste 0 -- -- 95
2019-09-29 08:00:00 15.9 14 Este 18 Este 0 -- -- 94
2019-09-29 07:00:00 16.2 12 Este 23 Este 0 -- -- 94
2019-09-29 06:00:00 16.4 21 Este 27 Este 0 -- -- 92
2019-09-29 05:00:00 16.8 22 Este 27 Este 0 -- -- 90
2019-09-29 04:00:00 16.9 18 Este 26 Este 0 -- -- 86
2019-09-29 03:00:00 17.6 18 Este 24 Este 0 -- -- 82
2019-09-29 02:00:00 18.1 18 Este 24 Este 0 -- -- 77
2019-09-29 01:00:00 19.1 17 Este 22 Este 0 -- -- 72
2019-09-29 00:00:00 19.8 14 Este 21 Este 0 -- -- 65
2019-09-28 23:00:00 19.9 11 Este 23 Este 0 -- -- 61
2019-09-28 22:00:00 20.7 16 Este 23 Nordeste 0 -- -- 55
2019-09-28 21:00:00 21.6 18 Este 23 Este 0 -- -- 53
2019-09-28 20:00:00 23.3 17 Este 22 Este 0 -- -- 51
2019-09-28 19:00:00 25.5 12 Este 20 Este 0 -- -- 40
2019-09-28 18:00:00 26.6 9 Este 23 Este 0 -- -- 35
2019-09-28 17:00:00 27.2 10 Sudeste 19 Este 0 -- -- 35
2019-09-28 16:00:00 26.7 8 Sudoeste 22 Sur 0 -- -- 36
2019-09-28 15:00:00 25.5 6 Sudoeste 16 Oeste 0 -- -- 41
2019-09-28 14:00:00 23.9 7 Oeste 14 Sudoeste 0 -- -- 51
2019-09-28 13:00:00 21.4 8 Oeste 17 Sudoeste 0 -- -- 60
2019-09-28 12:00:00 19.2 12 Sudoeste 20 Sudoeste 0 -- -- 67
2019-09-28 11:00:00 17.1 8 Oeste 13 Sudoeste 0 -- -- 75
2019-09-28 10:00:00 15.2 3 Oeste 9 Oeste 0 -- -- 82
2019-09-28 09:00:00 12.8 5 Este 8 Este 0 -- -- 90
2019-09-28 08:00:00 12.9 4 Este 5 Este 0 -- -- 90
2019-09-28 07:00:00 12.9 2 Este 4 Este 0 -- -- 87
2019-09-28 06:00:00 13.5 4 Oeste 7 Noroeste 0 -- -- 86
2019-09-28 05:00:00 13.9 3 Oeste 8 Noroeste 0 -- -- 82
2019-09-28 04:00:00 14.2 2 Noroeste 5 Noroeste 0 -- -- 80
2019-09-28 03:00:00 15 0 Calma 4 Este 0 -- -- 75
2019-09-28 02:00:00 15.4 5 Oeste 8 Noroeste 0 -- -- 66
2019-09-28 01:00:00 15.7 0 Calma 6 Nordeste 0 -- -- 58
2019-09-28 00:00:00 16.5 5 Este 10 Este 0 -- -- 53
2019-09-27 23:00:00 18.7 7 Este 13 Este 0 -- -- 46
2019-09-27 22:00:00 19.4 6 Norte 12 Noroeste 0 -- -- 48
2019-09-27 21:00:00 19.4 5 Norte 12 Noroeste 0 -- -- 46
2019-09-27 20:00:00 23.4 4 Oeste 12 Noroeste 0 -- -- 37
2019-09-27 19:00:00 26 10 Noroeste 19 Oeste 0 -- -- 32
2019-09-27 18:00:00 26.9 12 Oeste 20 Oeste 0 -- -- 31
2019-09-27 17:00:00 26.8 10 Oeste 22 Oeste 0 -- -- 34
2019-09-27 16:00:00 26.4 12 Sudoeste 23 Oeste 0 -- -- 37
2019-09-27 15:00:00 25.2 12 Oeste 24 Oeste 0 -- -- 42
2019-09-27 14:00:00 23.9 14 Oeste 23 Oeste 0 -- -- 50
2019-09-27 13:00:00 22.4 15 Oeste 21 Oeste 0 -- -- 57
2019-09-27 12:00:00 21.7 4 Oeste 14 Oeste 0 -- -- 50
2019-09-27 11:00:00 18.7 9 Oeste 13 Oeste 0 -- -- 69
2019-09-27 10:00:00 17 10 Oeste 13 Oeste 0 -- -- 72
2019-09-27 09:00:00 15.6 0 Calma 11 Este 0 -- -- 77
2019-09-27 08:00:00 15.9 9 Nordeste 13 Nordeste 0 -- -- 74
2019-09-27 07:00:00 15.4 7 Nordeste 14 Nordeste 0 -- -- 76
2019-09-27 06:00:00 15.9 10 Nordeste 15 Nordeste 0 -- -- 74
2019-09-27 05:00:00 16.5 7 Nordeste 12 Nordeste 0 -- -- 70
2019-09-27 04:00:00 17.5 6 Nordeste 11 Este 0 -- -- 68
2019-09-27 03:00:00 17.8 7 Este 14 Este 0 -- -- 69
2019-09-27 02:00:00 19 11 Este 15 Este 0 -- -- 63
2019-09-27 01:00:00 20.1 10 Nordeste 17 Nordeste 0 -- -- 54
2019-09-27 00:00:00 18.8 11 Nordeste 14 Nordeste 0 -- -- 59
2019-09-26 23:00:00 19.8 9 Nordeste 14 Nordeste 0 -- -- 57
2019-09-26 22:00:00 21.1 10 Nordeste 13 Nordeste 0 -- -- 52
2019-09-26 21:00:00 21.8 7 Nordeste 12 Este 0 -- -- 47
2019-09-26 20:00:00 23.7 8 Nordeste 21 Este 0 -- -- 42
2019-09-26 19:00:00 25.8 16 Este 23 Este 0 -- -- 38
2019-09-26 18:00:00 27.6 8 Sudeste 14 Sudeste 0 -- -- 36
2019-09-26 17:00:00 27.6 4 Oeste 12 Sudoeste 0 -- -- 35
2019-09-26 16:00:00 26.6 9 Oeste 19 Sudoeste 0 -- -- 37
2019-09-26 15:00:00 25.6 11 Oeste 19 Oeste 0 -- -- 41
2019-09-26 14:00:00 24.8 12 Oeste 17 Oeste 0 -- -- 44
2019-09-26 13:00:00 24.3 6 Este 11 Este 0 -- -- 42
2019-09-26 12:00:00 21.9 3 Sudoeste 9 Oeste 0 -- -- 48
2019-09-26 11:00:00 18.9 5 Oeste 10 Oeste 0 -- -- 61
2019-09-26 10:00:00 16.8 3 Oeste 5 Oeste 0 -- -- 70
2019-09-26 09:00:00 13.7 5 Este 8 Este 0 -- -- 80
2019-09-26 08:00:00 13.1 5 Este 6 Nordeste 0 -- -- 80
2019-09-26 07:00:00 13.3 0 Calma 7 Este 0 -- -- 79
2019-09-26 06:00:00 14 0 Calma 4 Este 0 -- -- 76
2019-09-26 05:00:00 14.5 3 Nordeste 7 Nordeste 0 -- -- 72
2019-09-26 04:00:00 14.3 3 Este 6 Este 0 -- -- 73
2019-09-26 03:00:00 14.5 0 Calma 5 Oeste 0 -- -- 73
2019-09-26 02:00:00 14.7 0 Calma 6 Este 0 -- -- 70
2019-09-26 01:00:00 15.6 5 Este 6 Este 0 -- -- 66
2019-09-26 00:00:00 16.2 4 Este 10 Noroeste 0 -- -- 64
2019-09-25 23:00:00 16.6 2 Noroeste 12 Noroeste 0 -- -- 63
2019-09-25 22:00:00 17.6 7 Noroeste 18 Noroeste 0 -- -- 59
2019-09-25 21:00:00 17.9 9 Noroeste 23 Oeste 0 -- -- 58
2019-09-25 20:00:00 19.1 13 Oeste 22 Noroeste 0 -- -- 55
2019-09-25 19:00:00 20.1 13 Noroeste 36 Oeste 0 -- -- 50
2019-09-25 18:00:00 20.5 20 Oeste 39 Oeste 0 -- -- 49
2019-09-25 17:00:00 20.9 20 Oeste 38 Oeste 0 -- -- 49
2019-09-25 16:00:00 20.9 23 Oeste 45 Oeste 0 -- -- 49
2019-09-25 15:00:00 20.3 24 Oeste 39 Oeste 0 -- -- 51
2019-09-25 14:00:00 19.2 22 Noroeste 44 Oeste 0 -- -- 54
2019-09-25 13:00:00 18.5 22 Oeste 40 Oeste 0 -- -- 57
2019-09-25 12:00:00 17.5 26 Oeste 39 Oeste 0 -- -- 63
2019-09-25 11:00:00 16.7 17 Noroeste 35 Noroeste 0 -- -- 64
2019-09-25 10:00:00 15.7 20 Noroeste 33 Noroeste 0 -- -- 67
2019-09-25 09:00:00 14.5 19 Noroeste 30 Noroeste 0 -- -- 72
2019-09-25 08:00:00 13.3 12 Noroeste 20 Oeste 0 -- -- 78
2019-09-25 07:00:00 12.9 10 Oeste 17 Oeste 0 -- -- 83
2019-09-25 06:00:00 13.6 10 Oeste 18 Oeste 0 -- -- 82
2019-09-25 05:00:00 13.5 13 Oeste 15 Oeste 0 -- -- 86
2019-09-25 04:00:00 14.3 9 Oeste 23 Oeste 0 -- -- 83
2019-09-25 03:00:00 14.7 12 Oeste 16 Oeste 0 -- -- 87
2019-09-25 02:00:00 16.4 13 Oeste 19 Oeste 0 -- -- 82
2019-09-25 01:00:00 18.8 8 Oeste 21 Oeste 0 -- -- 72
2019-09-25 00:00:00 19.6 3 Oeste 9 Oeste 0 -- -- 69
2019-09-24 23:00:00 19.4 2 Este 8 Este 0 -- -- 67
2019-09-24 22:00:00 20.8 3 Norte 8 Este 0 -- -- 61
2019-09-24 21:00:00 21.6 4 Este 9 Noroeste 0 -- -- 58
2019-09-24 20:00:00 23.4 7 Noroeste 13 Noroeste 0 -- -- 50
2019-09-24 19:00:00 24.3 9 Noroeste 14 Noroeste 0 -- -- 47
2019-09-24 18:00:00 24.8 10 Noroeste 22 Noroeste 0 -- -- 47
2019-09-24 17:00:00 25.3 7 Sudoeste 31 Oeste 0 -- -- 48
2019-09-24 16:00:00 25.7 22 Oeste 32 Oeste 0 -- -- 45
2019-09-24 15:00:00 24.9 20 Oeste 28 Oeste 0 -- -- 45
2019-09-24 14:00:00 24.2 18 Oeste 29 Oeste 0 -- -- 47
2019-09-24 13:00:00 22.9 24 Oeste 32 Sudoeste 0 -- -- 46
2019-09-24 12:00:00 21.6 17 Oeste 25 Oeste 0 -- -- 50
2019-09-24 11:00:00 20.6 20 Oeste 30 Oeste 0 -- -- 54
2019-09-24 10:00:00 19.5 8 Oeste 16 Noroeste 0 -- -- 57
2019-09-24 09:00:00 16.5 8 Nordeste 17 Nordeste 0 -- -- 65
2019-09-24 08:00:00 14.2 14 Nordeste 23 Nordeste 0 -- -- 71
2019-09-24 07:00:00 15.1 14 Nordeste 18 Nordeste 0 -- -- 67
2019-09-24 06:00:00 16.7 12 Nordeste 16 Nordeste 0 -- -- 62
2019-09-24 05:00:00 17.1 10 Nordeste 18 Este 0 -- -- 59
2019-09-24 04:00:00 15.9 11 Nordeste 17 Nordeste 0 -- -- 63
2019-09-24 03:00:00 17.8 10 Nordeste 17 Nordeste 0 -- -- 53
2019-09-24 02:00:00 18.5 12 Nordeste 16 Este 0 -- -- 49
2019-09-24 01:00:00 18.2 12 Nordeste 18 Este 0 -- -- 49
2019-09-24 00:00:00 17.4 13 Nordeste 16 Nordeste 0 -- -- 53
2019-09-23 23:00:00 17.6 11 Nordeste 15 Nordeste 0 -- -- 53
2019-09-23 22:00:00 17.9 12 Nordeste 15 Este 0 -- -- 54
2019-09-23 21:00:00 17.8 10 Nordeste 13 Nordeste 0 -- -- 57
2019-09-23 20:00:00 19.6 9 Nordeste 11 Nordeste 0 -- -- 52
2019-09-23 19:00:00 21.6 3 Norte 6 Nordeste 0 -- -- 43
2019-09-23 18:00:00 22.4 2 Sudoeste 9 Oeste 0 -- -- 42
2019-09-23 17:00:00 21.8 9 Oeste 15 Oeste 0 -- -- 44
2019-09-23 16:00:00 21.8 4 Sudoeste 14 Sudoeste 0 -- -- 41
2019-09-23 15:00:00 21.2 9 Oeste 16 Oeste 0 -- -- 43
2019-09-23 14:00:00 20.6 8 Oeste 21 Sudoeste 0 -- -- 48
2019-09-23 13:00:00 19.6 12 Oeste 19 Oeste 0 -- -- 55
2019-09-23 12:00:00 18.2 12 Oeste 17 Oeste 0 -- -- 60
2019-09-23 11:00:00 15.9 7 Oeste 9 Oeste 0 -- -- 75
2019-09-23 10:00:00 14.3 3 Oeste 5 Este 0 -- -- 81
2019-09-23 09:00:00 11.6 5 Nordeste 10 Este 0 -- -- 89
2019-09-23 08:00:00 10.8 5 Nordeste 10 Nordeste 0 -- -- 88
2019-09-23 07:00:00 11 6 Nordeste 9 Nordeste 0 -- -- 89
2019-09-23 06:00:00 11.5 5 Nordeste 9 Nordeste 0 -- -- 84
2019-09-23 05:00:00 11.9 5 Este 8 Este 0 -- -- 83
2019-09-23 04:00:00 11.9 3 Este 5 Este 0 -- -- 82
2019-09-23 03:00:00 11.4 3 Este 7 Oeste 0 -- -- 81
2019-09-23 02:00:00 12.4 5 Noroeste 7 Noroeste 0 -- -- 76
2019-09-23 01:00:00 12.9 3 Noroeste 9 Nordeste 0 -- -- 72
2019-09-23 00:00:00 13.9 4 Este 9 Noroeste 0 -- -- 67
2019-09-22 23:00:00 15.2 4 Nordeste 13 Noroeste 0 -- -- 63
2019-09-22 22:00:00 18.2 8 Noroeste 15 Noroeste 0 -- -- 50
2019-09-22 21:00:00 18.7 10 Noroeste 17 Noroeste 0 -- -- 48
2019-09-22 20:00:00 19.3 8 Noroeste 26 Noroeste 0 -- -- 50
2019-09-22 19:00:00 21.3 17 Noroeste 28 Noroeste 0 -- -- 47
2019-09-22 18:00:00 21.8 19 Noroeste 32 Noroeste 0 -- -- 48
2019-09-22 17:00:00 22 13 Oeste 32 Oeste 0 -- -- 56
2019-09-22 16:00:00 21.4 14 Noroeste 34 Oeste 0 -- -- 58
2019-09-22 15:00:00 20.7 14 Oeste 28 Oeste 0 -- -- 66
2019-09-22 14:00:00 20.5 16 Oeste 24 Oeste 0 -- -- 72
2019-09-22 13:00:00 19.8 10 Oeste 20 Oeste 0 -- -- 77
2019-09-22 12:00:00 20.4 13 Noroeste 29 Oeste 0 -- -- 74
2019-09-22 11:00:00 21.2 21 Oeste 29 Oeste 0 -- -- 68
2019-09-22 10:00:00 19.7 2 Este 10 Este 0 -- -- 80
2019-09-22 09:00:00 18.1 8 Este 14 Sudeste 0 -- -- 90
2019-09-22 08:00:00 17.6 11 Este 20 Sudeste 0 -- -- 91
2019-09-22 07:00:00 17.7 15 Este 21 Este 0 -- -- 92
2019-09-22 06:00:00 18.1 8 Este 25 Este 0 -- -- 91
2019-09-22 05:00:00 18.3 11 Sudeste 28 Este 0 -- -- 91
2019-09-22 04:00:00 18.3 15 Este 28 Este 0 -- -- 91
2019-09-22 03:00:00 18.4 18 Este 25 Este 0 -- -- 90
2019-09-22 02:00:00 18.5 17 Este 23 Este 0 -- -- 86
2019-09-22 01:00:00 18.8 19 Este 25 Este 0 -- -- 83
2019-09-22 00:00:00 19.2 14 Este 21 Este 0 -- -- 80
2019-09-21 23:00:00 19.3 13 Este 20 Este 0.2 -- -- 76
2019-09-21 22:00:00 20.8 8 Este 14 Este 0 -- -- 68
2019-09-21 21:00:00 21.3 3 Sudoeste 18 Este 0 -- -- 66
2019-09-21 20:00:00 22.2 8 Este 22 Este 0 -- -- 63
2019-09-21 19:00:00 24 8 Sudeste 16 Este 0 -- -- 55
2019-09-21 18:00:00 24.8 9 Sudoeste 22 Sur 0 -- -- 47
2019-09-21 17:00:00 25 9 Sur 27 Sudoeste 0 -- -- 48
2019-09-21 16:00:00 25.5 10 Sudoeste 23 Sudoeste 0 -- -- 50
2019-09-21 15:00:00 24.5 6 Sur 27 Este 0 -- -- 52
2019-09-21 14:00:00 23.5 16 Este 32 Este 0 -- -- 63
2019-09-21 13:00:00 22.2 21 Este 35 Este 0 -- -- 70
2019-09-21 12:00:00 19.8 23 Este 40 Este 0 -- -- 78
2019-09-21 11:00:00 18.1 26 Este 38 Este 0 -- -- 89
2019-09-21 10:00:00 16.7 24 Este 45 Este 0 -- -- 92
2019-09-21 09:00:00 16.6 32 Este 42 Este 0 -- -- 93
2019-09-21 08:00:00 -- -- -- -- -- -- -- -- --
2019-09-21 07:00:00 16.2 22 Este 39 Este 0 -- -- 92
2019-09-21 06:00:00 16.4 28 Este 41 Este 0.2 -- -- 92
2019-09-21 05:00:00 16.7 33 Este 44 Este 0 -- -- 90
2019-09-21 04:00:00 16.4 30 Este 43 Este 0 -- -- 91
2019-09-21 03:00:00 16.5 31 Este 52 Este 0.6 -- -- 89
2019-09-21 02:00:00 17 36 Este 50 Este 0 -- -- 84
2019-09-21 01:00:00 16.7 21 Este 43 Este 0 -- -- 84
2019-09-21 00:00:00 17 26 Este 44 Este 9.8 -- -- 89
2019-09-20 23:00:00 18.2 18 Este 41 Este 11.2 -- -- 86
2019-09-20 22:00:00 18.2 18 Oeste 24 Oeste 12.6 -- -- 90
2019-09-20 21:00:00 20.4 5 Noroeste 21 Este 0.2 -- -- 78
2019-09-20 20:00:00 21.4 15 Este 39 Sudeste 0.2 -- -- 73
2019-09-20 19:00:00 23.4 32 Este 55 Este 0 -- -- 58
2019-09-20 18:00:00 24 40 Este 54 Este 0 -- -- 55
2019-09-20 17:00:00 24.2 37 Este 52 Este 0 -- -- 55
2019-09-20 16:00:00 25.1 34 Este 50 Este 0 -- -- 56
2019-09-20 15:00:00 26.1 33 Este 53 Este 0 -- -- 54
2019-09-20 14:00:00 25.4 32 Este 51 Este 0 -- -- 56
2019-09-20 13:00:00 23.7 34 Este 52 Este 0 -- -- 62
2019-09-20 12:00:00 22.4 32 Este 55 Este 0 -- -- 65
2019-09-20 11:00:00 20.8 34 Este 50 Este 0 -- -- 69
2019-09-20 10:00:00 19.4 37 Este 49 Este 0 -- -- 73
2019-09-20 09:00:00 18 29 Este 39 Este 0 -- -- 73
2019-09-20 08:00:00 17.4 23 Este 32 Este 0 -- -- 75
2019-09-20 07:00:00 17.4 28 Este 41 Este 0 -- -- 76
2019-09-20 06:00:00 17.7 26 Este 35 Este 0 -- -- 76
2019-09-20 05:00:00 17.9 23 Este 32 Este 0 -- -- 75
2019-09-20 04:00:00 18 24 Este 35 Este 0 -- -- 76
2019-09-20 03:00:00 18.4 25 Este 36 Este 0 -- -- 76
2019-09-20 02:00:00 19 25 Este 47 Este 0 -- -- 74
2019-09-20 01:00:00 19.5 27 Este 37 Este 0 -- -- 72
2019-09-20 00:00:00 21.5 20 Este 27 Este 0 -- -- 62